Time;durP1;ratioP1;P1;durP2;ratioP2;P2;SDS_P1;SDS_P2;PMS_P1;PMS_P2;Temp;Humidity;BMP_temperature;BMP_pressure;BME280_temperature;BME280_humidity;BME280_pressure;Samples;Min_cycle;Max_cycle;Signal;HPM_P1;HPM_P2
2022/03/08 00:00:06;;;;;;;8.60;4.72;;;1.60;99.90;;;;;;5017871;28;20041;-79
2022/03/08 00:02:32;;;;;;;8.73;4.70;;;0.30;99.90;;;;;;5019192;28;20072;-79
2022/03/08 00:04:57;;;;;;;7.15;4.57;;;0.30;99.90;;;;;;5018079;28;20510;-79
2022/03/08 00:07:23;;;;;;;7.68;4.43;;;0.20;99.90;;;;;;5003947;28;20411;-80
2022/03/08 00:09:49;;;;;;;5.85;4.40;;;1.70;99.90;;;;;;5022755;28;20120;-81
2022/03/08 00:12:14;;;;;;;8.15;4.28;;;1.50;99.90;;;;;;5003574;28;20441;-79
2022/03/08 00:14:40;;;;;;;9.00;4.85;;;0.10;99.90;;;;;;5003233;28;20123;-80
2022/03/08 00:17:06;;;;;;;6.10;4.40;;;1.30;99.90;;;;;;5008866;28;20048;-80
2022/03/08 00:19:32;;;;;;;7.53;4.43;;;0.10;99.90;;;;;;4992706;28;20399;-80
2022/03/08 00:21:57;;;;;;;8.00;4.60;;;1.30;99.90;;;;;;4985112;28;20343;-79
2022/03/08 00:24:23;;;;;;;8.07;4.47;;;0.00;99.90;;;;;;5016964;28;20057;-80
2022/03/08 00:26:49;;;;;;;8.15;4.88;;;0.00;99.90;;;;;;5011055;28;20093;-82
2022/03/08 00:29:15;;;;;;;6.50;4.32;;;-0.10;99.90;;;;;;5009647;28;20064;-79
2022/03/08 00:31:40;;;;;;;9.45;4.95;;;-0.10;99.90;;;;;;5011581;28;20100;-80
2022/03/08 00:34:06;;;;;;;6.20;3.97;;;1.40;99.90;;;;;;5003925;28;20049;-80
2022/03/08 00:36:32;;;;;;;6.50;4.25;;;-0.10;99.90;;;;;;4999970;28;20042;-80
2022/03/08 00:38:58;;;;;;;8.10;4.45;;;-0.20;99.90;;;;;;5015784;28;20128;-80
2022/03/08 00:41:25;;;;;;;6.38;3.95;;;0.00;99.90;;;;;;5015333;28;20125;-79
2022/03/08 00:43:51;;;;;;;5.90;3.90;;;-0.20;99.90;;;;;;4985719;28;20042;-80
2022/03/08 00:46:17;;;;;;;6.38;4.53;;;1.20;99.90;;;;;;5017280;28;20038;-77
2022/03/08 00:48:43;;;;;;;6.47;4.30;;;1.30;99.90;;;;;;5016229;28;20057;-78
2022/03/08 00:51:10;;;;;;;7.32;5.07;;;-0.20;99.90;;;;;;4998601;28;20041;-78
2022/03/08 00:53:36;;;;;;;7.10;4.40;;;-0.30;99.90;;;;;;5013550;28;20046;-78
2022/03/08 00:56:02;;;;;;;8.38;5.03;;;-0.30;99.90;;;;;;5007705;28;20069;-78
2022/03/08 00:58:27;;;;;;;7.55;4.53;;;-0.30;99.90;;;;;;5008202;28;20048;-79
2022/03/08 01:00:53;;;;;;;6.72;4.65;;;1.00;99.90;;;;;;4985351;28;20037;-78
2022/03/08 01:03:19;;;;;;;6.13;4.30;;;-0.30;99.90;;;;;;5014133;28;20434;-78
2022/03/08 01:05:44;;;;;;;7.22;4.40;;;-0.40;99.90;;;;;;5004634;28;20064;-77
2022/03/08 01:08:10;;;;;;;9.23;4.25;;;-0.40;99.90;;;;;;5004887;28;20475;-78
2022/03/08 01:10:36;;;;;;;7.20;4.40;;;0.50;99.90;;;;;;5018360;28;20104;-78
2022/03/08 01:13:03;;;;;;;6.70;4.40;;;1.10;99.90;;;;;;5007600;28;20046;-80
2022/03/08 01:15:29;;;;;;;6.97;4.45;;;0.70;99.90;;;;;;5011052;28;20057;-80
2022/03/08 01:17:56;;;;;;;6.68;4.43;;;0.40;99.90;;;;;;4977372;28;20045;-82
2022/03/08 01:20:23;;;;;;;7.53;4.22;;;0.40;99.90;;;;;;5018690;28;20045;-80
2022/03/08 01:22:49;;;;;;;7.88;4.38;;;-0.50;99.90;;;;;;5018246;28;20054;-80
2022/03/08 01:25:17;;;;;;;7.53;4.82;;;0.10;99.90;;;;;;5019013;28;20665;-79
2022/03/08 01:27:43;;;;;;;7.22;4.60;;;0.10;99.90;;;;;;5030160;28;20054;-80
2022/03/08 01:30:12;;;;;;;7.00;4.43;;;-0.60;99.90;;;;;;5015000;28;20053;-80
2022/03/08 01:32:39;;;;;;;6.72;4.22;;;-0.60;99.90;;;;;;5008761;28;20058;-80
2022/03/08 01:35:05;;;;;;;8.90;4.53;;;-0.60;99.90;;;;;;5026174;28;20072;-80
2022/03/08 01:37:31;;;;;;;8.80;4.22;;;-0.70;99.90;;;;;;5017206;28;20095;-80
2022/03/08 01:39:56;;;;;;;7.15;4.68;;;-0.50;99.90;;;;;;5008096;28;20495;-81
2022/03/08 01:42:24;;;;;;;7.93;4.75;;;-0.20;99.90;;;;;;5016994;28;20048;-79
2022/03/08 01:44:50;;;;;;;7.93;4.32;;;1.00;99.90;;;;;;5036417;28;20068;-80
2022/03/08 01:47:21;;;;;;;7.75;4.95;;;0.60;99.90;;;;;;5019293;28;20037;-79
2022/03/08 01:49:49;;;;;;;7.40;4.50;;;-0.40;99.90;;;;;;5022229;28;20054;-80
2022/03/08 01:52:17;;;;;;;7.30;4.32;;;-0.80;99.90;;;;;;5012159;28;20266;-80
2022/03/08 01:54:43;;;;;;;7.50;4.32;;;0.40;99.90;;;;;;4997829;28;20045;-80
2022/03/08 01:57:09;;;;;;;8.73;4.32;;;-0.80;99.90;;;;;;5001827;28;20053;-78
2022/03/08 01:59:35;;;;;;;6.88;4.53;;;-0.30;99.90;;;;;;5006498;28;20483;-80
2022/03/08 02:02:02;;;;;;;6.65;4.30;;;0.50;99.90;;;;;;5011952;28;20111;-80
2022/03/08 02:04:28;;;;;;;8.10;4.47;;;-0.90;99.90;;;;;;5016794;28;20049;-80
2022/03/08 02:06:54;;;;;;;7.07;4.18;;;0.60;99.90;;;;;;5011943;28;20054;-80
2022/03/08 02:09:20;;;;;;;8.90;4.80;;;1.00;99.90;;;;;;5028465;28;20041;-81
2022/03/08 02:11:47;;;;;;;7.63;4.32;;;0.80;99.90;;;;;;5013821;28;20050;-80
2022/03/08 02:14:17;;;;;;;8.77;4.32;;;-0.10;99.90;;;;;;5019798;28;20057;-80
2022/03/08 02:16:44;;;;;;;6.43;4.07;;;-0.90;99.90;;;;;;5007067;28;20056;-80
2022/03/08 02:19:14;;;;;;;7.07;4.50;;;-0.20;99.90;;;;;;5009397;28;20081;-81
2022/03/08 02:21:40;;;;;;;7.35;4.38;;;-1.00;99.90;;;;;;5004344;28;20054;-81
2022/03/08 02:24:07;;;;;;;9.35;5.28;;;-1.00;99.90;;;;;;4998564;28;20045;-78
2022/03/08 02:26:33;;;;;;;8.38;4.57;;;0.30;99.90;;;;;;5012715;28;20133;-78
2022/03/08 02:29:00;;;;;;;8.93;4.80;;;-1.00;99.90;;;;;;4987659;28;20129;-79
2022/03/08 02:31:26;;;;;;;6.63;4.28;;;-2.10;99.90;;;;;;5008300;28;20053;-78
2022/03/08 02:33:52;;;;;;;7.60;5.00;;;-0.20;99.90;;;;;;5005725;28;20045;-76
2022/03/08 02:36:17;;;;;;;9.43;4.68;;;0.60;99.90;;;;;;4988844;28;20049;-78
2022/03/08 02:38:43;;;;;;;7.35;4.93;;;-1.10;99.90;;;;;;5013299;28;20034;-77
2022/03/08 02:41:09;;;;;;;7.90;4.88;;;-1.00;99.90;;;;;;5012373;28;20049;-79
2022/03/08 02:43:35;;;;;;;8.27;5.07;;;-0.40;99.90;;;;;;5011937;28;20115;-79
2022/03/08 02:46:01;;;;;;;8.35;4.43;;;0.00;99.90;;;;;;5002375;28;20128;-79
2022/03/08 02:48:27;;;;;;;7.07;4.47;;;-1.20;99.90;;;;;;5004013;28;20060;-78
2022/03/08 02:50:53;;;;;;;7.38;4.65;;;-1.20;99.90;;;;;;5020347;28;20491;-77
2022/03/08 02:53:19;;;;;;;7.28;4.40;;;-1.20;99.90;;;;;;5034293;28;20048;-78
2022/03/08 02:55:45;;;;;;;8.68;5.07;;;0.30;99.90;;;;;;5037060;28;20041;-80
2022/03/08 02:58:11;;;;;;;6.95;4.57;;;-1.20;99.90;;;;;;5009364;28;20041;-81
2022/03/08 03:00:38;;;;;;;9.45;5.50;;;0.00;99.90;;;;;;5018989;28;20042;-81
2022/03/08 03:03:04;;;;;;;9.05;4.82;;;-1.20;99.90;;;;;;5011323;28;20065;-83
2022/03/08 03:05:30;;;;;;;6.93;4.60;;;0.20;99.90;;;;;;5004418;28;20045;-80
2022/03/08 03:07:56;;;;;;;8.13;4.65;;;-1.30;99.90;;;;;;5017588;28;20099;-80
2022/03/08 03:10:23;;;;;;;8.80;4.80;;;-0.20;99.90;;;;;;5020981;28;20057;-79
2022/03/08 03:12:50;;;;;;;7.22;4.72;;;0.20;99.90;;;;;;5010735;28;20224;-80
2022/03/08 03:15:18;;;;;;;8.07;4.97;;;0.30;99.90;;;;;;5004651;28;20165;-79
2022/03/08 03:17:44;;;;;;;10.15;4.97;;;-1.30;99.90;;;;;;5005706;28;20510;-79
2022/03/08 03:20:12;;;;;;;9.25;5.25;;;-0.90;99.90;;;;;;5019372;28;20096;-80
2022/03/08 03:22:38;;;;;;;6.97;4.70;;;-1.30;99.90;;;;;;4993966;28;20275;-80
2022/03/08 03:25:05;;;;;;;7.13;4.40;;;-0.90;99.90;;;;;;5010401;28;20045;-81
2022/03/08 03:27:30;;;;;;;8.07;4.82;;;-1.40;99.90;;;;;;5003649;28;20405;-79
2022/03/08 03:29:56;;;;;;;8.52;5.18;;;-0.50;99.90;;;;;;5020046;28;20505;-80
2022/03/08 03:32:24;;;;;;;9.00;5.07;;;0.50;99.90;;;;;;5021071;28;20122;-80
2022/03/08 03:34:51;;;;;;;9.02;4.75;;;0.20;99.90;;;;;;4994841;28;20137;-80
2022/03/08 03:37:17;;;;;;;7.95;5.13;;;-1.00;99.90;;;;;;5000297;28;20052;-79
2022/03/08 03:39:43;;;;;;;12.05;6.13;;;-1.40;99.90;;;;;;5010770;28;20598;-79
2022/03/08 03:42:09;;;;;;;9.10;4.85;;;-0.80;99.90;;;;;;5016162;28;20046;-80
2022/03/08 03:44:34;;;;;;;9.55;5.30;;;-0.10;99.90;;;;;;5004175;28;20053;-79
2022/03/08 03:47:00;;;;;;;8.77;5.55;;;-1.50;99.90;;;;;;4987065;28;20052;-80
2022/03/08 03:49:26;;;;;;;9.27;5.70;;;-1.60;99.90;;;;;;5002984;28;20053;-79
2022/03/08 03:51:53;;;;;;;9.68;5.10;;;-1.50;99.90;;;;;;5006345;28;20044;-79
2022/03/08 03:54:22;;;;;;;7.82;5.18;;;0.30;99.90;;;;;;5016242;28;20491;-79
2022/03/08 03:56:48;;;;;;;8.60;5.03;;;-1.60;99.90;;;;;;5032111;28;20133;-79
2022/03/08 03:59:14;;;;;;;8.15;5.10;;;-0.70;99.90;;;;;;5017374;28;20120;-79
2022/03/08 04:01:39;;;;;;;10.02;5.78;;;0.30;99.90;;;;;;5007986;28;20378;-80
2022/03/08 04:04:05;;;;;;;9.65;5.45;;;0.30;99.90;;;;;;4994519;28;20042;-81
2022/03/08 04:06:32;;;;;;;8.65;5.20;;;-1.60;99.90;;;;;;5017504;28;20048;-80
2022/03/08 04:08:59;;;;;;;8.52;5.43;;;-0.30;99.90;;;;;;5018686;28;20130;-80
2022/03/08 04:11:25;;;;;;;9.30;5.55;;;-2.30;99.90;;;;;;5002749;28;20506;-80
2022/03/08 04:13:51;;;;;;;8.50;5.38;;;-0.60;99.90;;;;;;5035393;28;20046;-80
2022/03/08 04:16:16;;;;;;;7.82;5.40;;;-1.80;99.90;;;;;;4991946;28;20132;-77
2022/03/08 04:18:42;;;;;;;9.25;5.38;;;-1.80;99.90;;;;;;5001173;28;20034;-77
2022/03/08 04:21:08;;;;;;;10.38;5.40;;;-1.70;99.90;;;;;;5016092;28;20144;-77
2022/03/08 04:23:34;;;;;;;10.85;6.28;;;-0.10;99.90;;;;;;4983982;28;20087;-78
2022/03/08 04:26:00;;;;;;;10.25;6.30;;;-0.40;99.90;;;;;;5010611;28;20045;-77
2022/03/08 04:28:25;;;;;;;11.32;5.93;;;-1.80;99.90;;;;;;4990144;28;20449;-78
2022/03/08 04:30:51;;;;;;;9.35;5.20;;;-1.80;99.90;;;;;;5006236;28;20080;-78
2022/03/08 04:33:17;;;;;;;12.60;6.30;;;-0.60;99.90;;;;;;5017459;28;20037;-77
2022/03/08 04:35:43;;;;;;;11.00;5.93;;;-0.30;99.90;;;;;;5019973;28;20099;-77
2022/03/08 04:38:09;;;;;;;10.27;5.75;;;-0.20;99.90;;;;;;4989801;28;20109;-77
2022/03/08 04:40:35;;;;;;;11.73;6.43;;;-0.30;99.90;;;;;;5018369;28;20042;-76
2022/03/08 04:43:00;;;;;;;11.23;6.65;;;-1.80;99.90;;;;;;5009665;28;20119;-78
2022/03/08 04:45:26;;;;;;;10.63;6.22;;;-1.90;99.90;;;;;;5009383;28;20045;-79
2022/03/08 04:47:52;;;;;;;14.48;6.35;;;-1.80;99.90;;;;;;4994101;28;20407;-80
2022/03/08 04:50:18;;;;;;;9.70;5.75;;;-1.60;99.90;;;;;;5015916;28;20054;-78
2022/03/08 04:52:46;;;;;;;9.80;5.78;;;-1.00;99.90;;;;;;5032119;28;20052;-77
2022/03/08 04:55:12;;;;;;;9.45;6.30;;;-0.90;99.90;;;;;;5019781;28;20056;-80
2022/03/08 04:57:39;;;;;;;10.32;5.82;;;-2.00;99.90;;;;;;5008523;28;20045;-79
2022/03/08 05:00:07;;;;;;;9.63;6.40;;;-1.10;99.90;;;;;;5006067;28;20053;-77
2022/03/08 05:02:33;;;;;;;10.15;5.47;;;-2.00;99.90;;;;;;5019935;28;20058;-78
2022/03/08 05:04:59;;;;;;;10.18;5.95;;;-0.50;99.90;;;;;;4988381;28;20041;-78
2022/03/08 05:07:25;;;;;;;10.88;6.35;;;-2.00;99.90;;;;;;5009124;28;20052;-79
2022/03/08 05:09:50;;;;;;;11.20;5.97;;;-2.00;99.90;;;;;;5017433;28;20050;-78
2022/03/08 05:12:16;;;;;;;10.35;6.50;;;-0.90;99.90;;;;;;5011294;28;20180;-78
2022/03/08 05:14:42;;;;;;;10.32;6.45;;;-1.70;99.90;;;;;;5010680;28;20125;-78
2022/03/08 05:17:08;;;;;;;10.40;6.28;;;-1.50;99.90;;;;;;5011013;28;20052;-80
2022/03/08 05:19:33;;;;;;;12.38;6.97;;;-2.10;99.90;;;;;;5020279;28;20056;-78
2022/03/08 05:21:59;;;;;;;9.85;6.63;;;-2.10;99.90;;;;;;5004685;28;20064;-78
2022/03/08 05:24:25;;;;;;;11.85;7.10;;;-0.10;99.90;;;;;;5019541;28;20787;-78
2022/03/08 05:26:51;;;;;;;11.23;7.18;;;-2.10;99.90;;;;;;5023955;28;20720;-79
2022/03/08 05:29:17;;;;;;;10.82;6.63;;;-2.10;99.90;;;;;;5025112;28;20137;-80
2022/03/08 05:31:43;;;;;;;12.43;7.15;;;-0.70;99.90;;;;;;5024775;28;20061;-80
2022/03/08 05:34:09;;;;;;;12.48;7.18;;;-0.40;99.90;;;;;;5010265;28;20084;-81
2022/03/08 05:36:35;;;;;;;11.38;7.20;;;-2.00;99.90;;;;;;5016089;28;20045;-77
2022/03/08 05:39:01;;;;;;;12.93;7.00;;;-0.20;99.90;;;;;;5010342;28;20041;-77
2022/03/08 05:41:27;;;;;;;13.60;7.07;;;-2.20;99.90;;;;;;5016514;28;20053;-78
2022/03/08 05:43:53;;;;;;;12.77;6.93;;;-2.10;99.90;;;;;;5012624;28;20104;-78
2022/03/08 05:46:19;;;;;;;12.07;6.85;;;-0.60;99.90;;;;;;5017174;28;20123;-78
2022/03/08 05:48:44;;;;;;;9.88;6.35;;;-2.20;99.90;;;;;;5018102;28;20471;-77
2022/03/08 05:51:10;;;;;;;10.73;6.47;;;-2.20;99.90;;;;;;4987378;28;20042;-80
2022/03/08 05:53:36;;;;;;;10.68;6.32;;;-0.50;99.90;;;;;;5005774;28;20045;-79
2022/03/08 05:56:02;;;;;;;12.70;7.07;;;-1.50;99.90;;;;;;5017768;28;20045;-78
2022/03/08 05:58:28;;;;;;;13.20;7.88;;;-2.20;99.90;;;;;;5019097;28;20077;-78
2022/03/08 06:00:53;;;;;;;15.00;7.18;;;-0.80;99.90;;;;;;5011651;28;20080;-79
2022/03/08 06:03:19;;;;;;;10.80;6.75;;;-1.00;99.90;;;;;;5002149;28;20430;-78
2022/03/08 06:05:45;;;;;;;12.18;7.30;;;-0.80;99.90;;;;;;4988658;28;20042;-78
2022/03/08 06:08:11;;;;;;;12.07;7.03;;;-2.20;99.90;;;;;;5012460;28;20056;-80
2022/03/08 06:10:36;;;;;;;13.50;8.15;;;-0.70;99.90;;;;;;4989063;28;20046;-79
2022/03/08 06:13:05;;;;;;;11.88;7.15;;;-1.40;99.90;;;;;;4992552;28;20057;-79
2022/03/08 06:15:30;;;;;;;11.15;7.32;;;-0.70;99.90;;;;;;5007662;28;20052;-78
2022/03/08 06:17:56;;;;;;;11.02;6.70;;;-2.30;99.90;;;;;;5020124;28;20143;-78
2022/03/08 06:20:22;;;;;;;12.07;6.93;;;-2.20;99.90;;;;;;5038798;28;20462;-78
2022/03/08 06:22:50;;;;;;;13.38;7.45;;;-0.80;99.90;;;;;;5012248;28;20061;-77
2022/03/08 06:25:16;;;;;;;12.80;7.70;;;-2.20;99.90;;;;;;5004611;28;20060;-78
2022/03/08 06:27:41;;;;;;;11.93;7.13;;;-2.20;99.90;;;;;;5011915;28;20038;-77
2022/03/08 06:30:08;;;;;;;12.90;8.18;;;-1.00;99.90;;;;;;5036567;28;20479;-79
2022/03/08 06:32:34;;;;;;;14.05;7.75;;;-2.20;99.90;;;;;;5027651;28;20053;-80
2022/03/08 06:35:00;;;;;;;12.52;7.32;;;-2.20;99.90;;;;;;5000954;28;20057;-79
2022/03/08 06:37:26;;;;;;;12.52;7.20;;;-1.20;99.90;;;;;;5004425;28;20041;-79
2022/03/08 06:39:52;;;;;;;12.25;7.35;;;;;;;;;;5021125;28;20403;-79
2022/03/08 06:42:18;;;;;;;14.10;7.88;;;-2.20;99.90;;;;;;5014887;28;20045;-79
2022/03/08 06:44:44;;;;;;;14.18;7.70;;;-2.20;99.90;;;;;;5003110;28;20070;-79
2022/03/08 06:47:10;;;;;;;12.63;7.93;;;-2.10;99.90;;;;;;5019367;28;20042;-78
2022/03/08 06:49:41;;;;;;;16.80;8.43;;;-0.50;99.90;;;;;;5012076;28;20128;-80
2022/03/08 06:52:08;;;;;;;12.52;7.63;;;-2.10;99.90;;;;;;5020224;28;20156;-80
2022/03/08 06:54:34;;;;;;;14.70;8.00;;;-0.70;99.90;;;;;;5007878;28;20135;-84
2022/03/08 06:57:00;;;;;;;13.60;8.13;;;-0.20;99.90;;;;;;5019509;28;20526;-79
2022/03/08 06:59:26;;;;;;;13.30;8.07;;;-1.90;99.90;;;;;;5024489;28;20144;-79
2022/03/08 07:01:52;;;;;;;11.63;7.70;;;-0.20;99.90;;;;;;5003205;28;20054;-80
2022/03/08 07:04:18;;;;;;;15.00;8.52;;;-1.80;99.90;;;;;;5006136;28;20081;-83
2022/03/08 07:06:45;;;;;;;14.73;8.60;;;-1.80;99.90;;;;;;5008440;28;20042;-80
2022/03/08 07:09:11;;;;;;;14.20;8.50;;;0.00;99.90;;;;;;4989546;28;20045;-82
2022/03/08 07:11:36;;;;;;;15.02;8.25;;;-1.60;99.90;;;;;;5000682;28;20124;-80
2022/03/08 07:14:05;;;;;;;13.45;8.02;;;-1.50;99.90;;;;;;5018123;28;20056;-80
2022/03/08 07:16:31;;;;;;;13.65;8.48;;;0.00;99.90;;;;;;5035099;28;20046;-80
2022/03/08 07:18:57;;;;;;;13.85;8.10;;;0.30;99.90;;;;;;5006876;28;20159;-80
2022/03/08 07:21:23;;;;;;;15.25;8.75;;;-1.50;99.90;;;;;;5022435;28;20113;-79
2022/03/08 07:23:49;;;;;;;12.80;8.20;;;-0.20;99.90;;;;;;4994435;28;20050;-79
2022/03/08 07:26:15;;;;;;;13.18;8.20;;;0.50;99.90;;;;;;5019301;28;20128;-81
2022/03/08 07:28:40;;;;;;;13.75;8.25;;;-1.40;99.90;;;;;;4989556;28;20050;-80
2022/03/08 07:31:06;;;;;;;14.02;8.65;;;-0.10;99.90;;;;;;5012707;28;20049;-80
2022/03/08 07:33:32;;;;;;;13.18;8.45;;;0.40;99.90;;;;;;5019331;28;20136;-80
2022/03/08 07:35:59;;;;;;;16.45;8.52;;;-1.10;99.90;;;;;;4987050;28;20054;-80
2022/03/08 07:38:26;;;;;;;12.00;8.07;;;0.10;99.90;;;;;;5020991;28;20042;-81
2022/03/08 07:40:51;;;;;;;13.50;8.80;;;-0.90;99.90;;;;;;5002419;28;20056;-79
2022/03/08 07:43:17;;;;;;;15.10;9.40;;;-0.90;99.90;;;;;;5005067;28;20128;-82
2022/03/08 07:45:43;;;;;;;15.65;8.32;;;-0.80;99.90;;;;;;5010957;28;20054;-80
2022/03/08 07:48:09;;;;;;;14.52;9.30;;;-0.70;99.90;;;;;;5012685;28;20110;-80
2022/03/08 07:50:36;;;;;;;14.40;8.60;;;0.70;99.90;;;;;;5006459;28;20080;-80
2022/03/08 07:53:03;;;;;;;16.70;8.10;;;0.60;99.90;;;;;;5012712;28;20048;-80
2022/03/08 07:55:29;;;;;;;14.93;9.50;;;-0.50;99.90;;;;;;5003944;28;20511;-80
2022/03/08 07:57:57;;;;;;;15.73;9.45;;;-0.10;99.90;;;;;;5017324;28;20037;-80
2022/03/08 08:00:23;;;;;;;13.15;9.00;;;0.20;99.90;;;;;;5012482;28;20557;-81
2022/03/08 08:02:49;;;;;;;15.27;8.70;;;-0.10;99.90;;;;;;5022658;28;20128;-80
2022/03/08 08:05:14;;;;;;;15.40;9.75;;;1.80;99.90;;;;;;5004838;28;20529;-80
2022/03/08 08:07:40;;;;;;;18.65;8.75;;;0.50;99.90;;;;;;5011755;28;20063;-82
2022/03/08 08:10:06;;;;;;;12.93;8.35;;;0.60;99.90;;;;;;5021807;28;20053;-81
2022/03/08 08:12:34;;;;;;;15.73;8.88;;;0.50;99.90;;;;;;5004556;28;20399;-80
2022/03/08 08:15:00;;;;;;;13.15;8.50;;;0.60;99.90;;;;;;5004342;28;20080;-80
2022/03/08 08:17:26;;;;;;;13.23;8.77;;;1.20;99.90;;;;;;5012697;28;20077;-81
2022/03/08 08:19:52;;;;;;;12.95;9.40;;;1.10;99.90;;;;;;5021599;28;20061;-81
2022/03/08 08:22:18;;;;;;;14.40;9.18;;;1.30;99.90;;;;;;5012493;28;20418;-80
2022/03/08 08:24:43;;;;;;;12.48;8.55;;;1.60;99.90;;;;;;5011303;28;20487;-81
2022/03/08 08:27:09;;;;;;;12.57;8.55;;;2.70;99.90;;;;;;5011931;28;20483;-81
2022/03/08 08:29:35;;;;;;;13.65;8.38;;;2.10;99.90;;;;;;5003360;28;20049;-81
2022/03/08 08:32:00;;;;;;;12.35;8.82;;;2.40;99.90;;;;;;5005296;28;20057;-81
2022/03/08 08:34:26;;;;;;;12.10;7.75;;;2.70;99.90;;;;;;5002832;28;20058;-81
2022/03/08 08:36:52;;;;;;;12.63;8.82;;;3.00;99.90;;;;;;5014190;28;20075;-81
2022/03/08 08:39:18;;;;;;;10.80;7.43;;;4.00;99.90;;;;;;4996818;28;20107;-81
2022/03/08 08:41:44;;;;;;;13.80;8.20;;;3.50;99.90;;;;;;5024592;28;20054;-81
2022/03/08 08:44:11;;;;;;;9.10;6.80;;;3.70;99.90;;;;;;5012829;28;20128;-82
2022/03/08 08:46:38;;;;;;;10.25;7.30;;;3.90;99.90;;;;;;5019764;28;20041;-81
2022/03/08 08:49:04;;;;;;;10.85;7.55;;;4.00;99.90;;;;;;5011748;28;20095;-81
2022/03/08 08:51:34;;;;;;;10.98;6.45;;;4.30;99.90;;;;;;5005856;28;20053;-81
2022/03/08 08:54:00;;;;;;;11.48;6.82;;;4.60;99.90;;;;;;5001268;28;20053;-82
2022/03/08 08:56:27;;;;;;;9.63;6.57;;;4.80;99.90;;;;;;5044636;28;20120;-82
2022/03/08 08:58:53;;;;;;;9.13;6.45;;;5.00;99.90;;;;;;5028076;28;20675;-81
2022/03/08 09:01:19;;;;;;;11.70;6.95;;;5.30;99.90;;;;;;5029621;28;20054;-82
2022/03/08 09:03:45;;;;;;;8.38;6.38;;;5.40;99.90;;;;;;5027768;28;20081;-81
2022/03/08 09:06:11;;;;;;;9.90;6.40;;;5.50;99.90;;;;;;5008394;28;20087;-82
2022/03/08 09:08:37;;;;;;;8.55;5.68;;;5.20;99.90;;;;;;5015348;28;20450;-78
2022/03/08 09:11:05;;;;;;;8.18;6.20;;;5.70;99.90;;;;;;5015162;28;20057;-79
2022/03/08 09:13:31;;;;;;;10.85;6.65;;;5.90;99.90;;;;;;5022762;28;20057;-80
2022/03/08 09:15:57;;;;;;;8.10;5.60;;;6.10;99.90;;;;;;5007861;28;20054;-79
2022/03/08 09:18:23;;;;;;;7.93;5.78;;;6.90;99.90;;;;;;5004891;28;20049;-80
2022/03/08 09:20:49;;;;;;;7.47;6.20;;;6.00;99.90;;;;;;5038625;28;20050;-79
2022/03/08 09:23:15;;;;;;;6.88;5.25;;;6.30;99.90;;;;;;5013961;28;20065;-79
2022/03/08 09:25:41;;;;;;;6.88;5.72;;;6.30;99.90;;;;;;5006484;28;20490;-79
2022/03/08 09:28:07;;;;;;;10.05;5.65;;;6.50;99.90;;;;;;5013506;28;20060;-80
2022/03/08 09:30:35;;;;;;;6.63;5.30;;;6.50;99.90;;;;;;5006094;28;20050;-79
2022/03/08 09:33:01;;;;;;;7.78;5.57;;;6.60;99.90;;;;;;5013640;28;20053;-80
2022/03/08 09:35:28;;;;;;;8.07;4.60;;;7.10;99.90;;;;;;5006270;28;20054;-81
2022/03/08 09:37:54;;;;;;;6.40;4.82;;;6.70;99.90;;;;;;5006864;28;20046;-80
2022/03/08 09:40:21;;;;;;;7.20;4.63;;;6.80;99.90;;;;;;5013997;28;20048;-79
2022/03/08 09:42:48;;;;;;;7.28;5.00;;;7.00;99.90;;;;;;5014119;28;20054;-79
2022/03/08 09:45:15;;;;;;;6.38;4.75;;;8.20;99.90;;;;;;5021930;28;20056;-80
2022/03/08 09:47:41;;;;;;;4.78;4.22;;;7.30;99.90;;;;;;5021122;28;20050;-79
2022/03/08 09:50:08;;;;;;;6.47;4.72;;;7.40;99.90;;;;;;5013674;28;20053;-80
2022/03/08 09:52:36;;;;;;;7.13;4.40;;;7.60;99.90;;;;;;5005906;28;20045;-79
2022/03/08 09:55:03;;;;;;;5.82;4.38;;;7.90;99.90;;;;;;5006141;28;20049;-80
2022/03/08 09:57:29;;;;;;;4.70;4.00;;;8.10;99.90;;;;;;5021699;28;20111;-80
2022/03/08 09:59:55;;;;;;;6.40;4.20;;;8.30;99.90;;;;;;5006443;28;20554;-80
2022/03/08 10:02:23;;;;;;;5.80;4.43;;;8.40;99.90;;;;;;5006689;28;20045;-79
2022/03/08 10:05:06;;;;;;;4.97;4.25;;;8.70;99.90;;;;;;4980575;28;20049;-79
2022/03/08 10:07:31;;;;;;;6.88;4.93;;;8.70;99.90;;;;;;5019684;28;20132;-79
2022/03/08 10:09:58;;;;;;;5.70;4.20;;;9.40;99.90;;;;;;5005062;28;20133;-79
2022/03/08 10:12:25;;;;;;;6.68;4.32;;;8.90;99.90;;;;;;4989139;28;20502;-80
2022/03/08 10:14:51;;;;;;;5.15;4.38;;;9.00;99.90;;;;;;5028143;28;20086;-79
2022/03/08 10:17:36;;;;;;;5.20;4.40;;;9.00;99.90;;;;;;4996407;28;20073;-80
2022/03/08 10:20:04;;;;;;;6.32;4.20;;;8.90;99.10;;;;;;5021436;28;20045;-80
2022/03/08 10:22:40;;;;;;;6.68;4.38;;;9.00;99.90;;;;;;5019408;28;20072;-83
2022/03/08 10:25:16;;;;;;;6.55;4.07;;;9.10;99.60;;;;;;5021079;28;20130;-81
2022/03/08 10:27:55;;;;;;;6.03;4.47;;;9.20;99.90;;;;;;5034537;28;20423;-81
2022/03/08 10:30:46;;;;;;;7.13;4.53;;;9.10;99.80;;;;;;5021497;28;20050;-81
2022/03/08 10:33:30;;;;;;;6.10;4.30;;;9.10;98.80;;;;;;5020787;28;20042;-80
2022/03/08 10:35:56;;;;;;;4.93;4.20;;;9.00;99.20;;;;;;5023260;28;20046;-81
2022/03/08 10:38:21;;;;;;;5.82;4.30;;;8.90;99.70;;;;;;5004957;28;20126;-81
2022/03/08 10:40:48;;;;;;;5.18;4.28;;;8.90;99.00;;;;;;5003095;28;20053;-81
2022/03/08 10:43:17;;;;;;;4.88;3.85;;;8.90;99.10;;;;;;5004533;28;20081;-81
2022/03/08 10:45:48;;;;;;;6.22;4.75;;;8.90;98.90;;;;;;5005717;28;20061;-81
2022/03/08 10:48:17;;;;;;;5.10;4.45;;;9.20;99.20;;;;;;5002922;28;20049;-81
2022/03/08 10:50:44;;;;;;;5.80;4.38;;;9.40;98.00;;;;;;5012105;28;20501;-81
2022/03/08 10:53:11;;;;;;;9.65;4.28;;;9.40;97.80;;;;;;5004784;28;20513;-81
2022/03/08 10:55:46;;;;;;;6.25;4.38;;;9.40;97.90;;;;;;5003392;28;20049;-82
2022/03/08 10:58:14;;;;;;;6.03;4.70;;;9.40;96.70;;;;;;5006153;28;20045;-79
2022/03/08 11:00:47;;;;;;;6.53;4.80;;;9.50;96.50;;;;;;5017983;28;20050;-79
2022/03/08 11:03:13;;;;;;;5.95;4.47;;;9.50;96.30;;;;;;5000717;28;20049;-80
2022/03/08 11:05:49;;;;;;;6.72;4.43;;;11.00;96.80;;;;;;5009405;28;20111;-79
2022/03/08 11:08:15;;;;;;;;;;;9.90;95.50;;;;;;5022977;28;20394;-79
2022/03/08 11:10:42;;;;;;;7.60;4.68;;;10.00;91.90;;;;;;5018535;28;19924;-80
2022/03/08 11:13:09;;;;;;;5.15;4.65;;;10.20;95.70;;;;;;5017617;28;20056;-79
2022/03/08 11:15:38;;;;;;;5.28;4.05;;;10.20;95.00;;;;;;5001909;28;20096;-79
2022/03/08 11:18:10;;;;;;;6.45;4.35;;;10.40;93.40;;;;;;5004745;28;20096;-79
2022/03/08 11:20:39;;;;;;;5.43;4.18;;;10.40;91.60;;;;;;5018397;28;20041;-79
2022/03/08 11:23:05;;;;;;;5.45;4.45;;;10.60;88.60;;;;;;5031349;28;20058;-79
2022/03/08 11:25:34;;;;;;;6.63;4.35;;;10.90;91.10;;;;;;5010226;28;20073;-81
2022/03/08 11:28:02;;;;;;;6.28;4.47;;;11.10;90.50;;;;;;5019102;28;20052;-80
2022/03/08 11:30:45;;;;;;;6.63;4.15;;;11.40;89.80;;;;;;5021731;28;20057;-81
2022/03/08 11:33:38;;;;;;;5.00;4.10;;;11.60;87.30;;;;;;5007346;28;20049;-81
2022/03/08 11:36:22;;;;;;;5.40;3.80;;;11.80;85.60;;;;;;5017462;28;20058;-79
2022/03/08 11:39:19;;;;;;;5.20;4.03;;;12.30;79.20;;;;;;5015052;28;20488;-81
2022/03/08 11:41:53;;;;;;;5.45;4.18;;;12.60;76.50;;;;;;5016135;28;20050;-80
2022/03/08 11:44:26;;;;;;;6.72;4.20;;;13.20;73.60;;;;;;5018436;28;20163;-79
2022/03/08 11:47:14;;;;;;;5.85;4.13;;;13.80;70.30;;;;;;5021158;28;20080;-79
2022/03/08 11:50:00;;;;;;;6.15;4.30;;;14.30;63.70;;;;;;5017115;28;20162;-83
2022/03/08 11:52:30;;;;;;;7.40;4.18;;;14.60;62.20;;;;;;5004680;28;20061;-81
2022/03/08 11:55:03;;;;;;;4.68;3.75;;;15.30;62.70;;;;;;5014502;28;20084;-79
2022/03/08 11:57:48;;;;;;;4.32;3.90;;;15.40;58.20;;;;;;5001916;28;20047;-79
2022/03/08 12:00:32;;;;;;;3.90;3.47;;;16.40;54.90;;;;;;5020251;28;20046;-78
2022/03/08 12:03:03;;;;;;;4.95;4.18;;;16.10;55.00;;;;;;5019277;28;20053;-79
2022/03/08 12:05:42;;;;;;;7.78;3.90;;;16.30;54.20;;;;;;5011268;28;20453;-79
2022/03/08 12:08:27;;;;;;;5.53;4.22;;;16.20;53.60;;;;;;5003962;28;20062;-78
2022/03/08 12:11:04;;;;;;;5.47;3.95;;;16.10;52.60;;;;;;5009661;28;20124;-79
2022/03/08 12:13:39;;;;;;;4.68;3.90;;;16.10;53.20;;;;;;4988355;28;20042;-79
2022/03/08 12:16:05;;;;;;;;;;;15.90;52.10;;;;;;5022547;28;20105;-79
2022/03/08 12:18:35;;;;;;;5.70;3.40;;;15.80;51.30;;;;;;5014838;28;20003;-79
2022/03/08 12:21:22;;;;;;;5.07;4.13;;;16.20;53.40;;;;;;5017936;28;20048;-80
2022/03/08 12:24:00;;;;;;;5.00;3.90;;;16.20;52.00;;;;;;5022661;28;20333;-80
2022/03/08 12:26:39;;;;;;;5.35;3.92;;;16.30;52.10;;;;;;5015089;28;20529;-80
2022/03/08 12:29:05;;;;;;;4.68;3.72;;;16.30;52.10;;;;;;5022112;28;20049;-80
2022/03/08 12:31:31;;;;;;;4.15;3.55;;;16.60;53.30;;;;;;5016713;28;20136;-81
2022/03/08 12:34:02;;;;;;;4.30;3.80;;;16.40;52.30;;;;;;5005698;28;20046;-81
2022/03/08 12:36:28;;;;;;;4.85;4.00;;;16.30;51.30;;;;;;5035109;28;20046;-79
2022/03/08 12:38:54;;;;;;;4.60;3.95;;;16.30;51.70;;;;;;5007854;28;20046;-81
2022/03/08 12:41:27;;;;;;;5.40;3.83;;;16.20;52.70;;;;;;5002037;28;20056;-80
2022/03/08 12:44:01;;;;;;;4.65;4.00;;;15.80;52.00;;;;;;5004948;28;20475;-80
2022/03/08 12:46:28;;;;;;;4.72;3.70;;;16.20;52.60;;;;;;5015929;28;20042;-80
2022/03/08 12:48:54;;;;;;;4.50;3.78;;;16.20;53.30;;;;;;5030961;28;20076;-79